createdAt,value
2019-03-19T00:00:56.919Z,99.70
2019-03-19T00:03:29.928Z,99.50
2019-03-19T00:06:04.554Z,99.50
2019-03-19T00:08:37.641Z,99.60
2019-03-19T00:11:10.397Z,99.50
2019-03-19T00:13:43.821Z,99.50
2019-03-19T00:16:16.787Z,99.50
2019-03-19T00:18:49.660Z,99.50
2019-03-19T00:21:22.544Z,99.60
2019-03-19T00:23:55.331Z,99.50
2019-03-19T00:26:28.381Z,99.60
2019-03-19T00:29:01.370Z,99.90
2019-03-19T00:31:34.662Z,99.80
2019-03-19T00:34:07.626Z,99.60
2019-03-19T00:36:40.898Z,99.60
2019-03-19T00:39:33.918Z,99.80
2019-03-19T00:42:07.319Z,99.70
2019-03-19T00:44:44.396Z,99.80
2019-03-19T00:47:17.558Z,99.90
2019-03-19T00:49:51.015Z,99.60
2019-03-19T00:52:24.621Z,99.70
2019-03-19T00:55:17.752Z,99.60
2019-03-19T00:57:51.008Z,99.90
2019-03-19T01:00:23.929Z,99.70
2019-03-19T01:02:56.680Z,99.90
2019-03-19T01:05:30.128Z,99.70
2019-03-19T01:08:02.798Z,99.80
2019-03-19T01:10:35.824Z,99.90
2019-03-19T01:13:08.618Z,99.90
2019-03-19T01:15:41.801Z,99.90
2019-03-19T01:18:14.521Z,99.90
2019-03-19T01:20:47.547Z,99.90
2019-03-19T01:23:20.974Z,99.80
2019-03-19T01:25:55.647Z,99.40
2019-03-19T01:28:28.503Z,99.30
2019-03-19T01:31:01.986Z,98.90
2019-03-19T01:33:35.020Z,99.00
2019-03-19T01:36:08.485Z,98.80
2019-03-19T01:38:46.255Z,98.70
2019-03-19T01:41:19.220Z,98.50
2019-03-19T01:43:52.117Z,98.50
2019-03-19T01:46:24.969Z,98.50
2019-03-19T01:48:59.056Z,98.40
2019-03-19T01:51:35.413Z,98.20
2019-03-19T01:54:08.878Z,98.30
2019-03-19T01:56:42.128Z,98.00
2019-03-19T01:59:16.511Z,98.00
2019-03-19T02:01:52.741Z,98.10
2019-03-19T02:04:24.911Z,97.60
2019-03-19T02:07:00.583Z,97.60
2019-03-19T02:09:33.073Z,97.80
2019-03-19T02:12:06.441Z,97.80
2019-03-19T02:14:40.008Z,97.70
2019-03-19T02:17:13.316Z,97.60
2019-03-19T02:19:46.160Z,97.70
2019-03-19T02:22:20.233Z,97.90
2019-03-19T02:24:54.063Z,98.30
2019-03-19T02:27:27.192Z,99.10
2019-03-19T02:30:01.575Z,98.00
2019-03-19T02:32:38.398Z,99.00
2019-03-19T02:35:11.656Z,98.80
2019-03-19T02:37:44.861Z,98.90
2019-03-19T02:40:18.374Z,97.30
2019-03-19T02:42:52.377Z,97.30
2019-03-19T02:45:24.825Z,99.10
2019-03-19T02:47:58.043Z,97.10
2019-03-19T02:50:31.972Z,98.90
2019-03-19T02:53:05.100Z,99.90
2019-03-19T02:55:37.646Z,99.10
2019-03-19T02:58:10.440Z,97.40
2019-03-19T03:00:44.188Z,97.00
2019-03-19T03:03:17.598Z,96.40
2019-03-19T03:05:51.028Z,98.80
2019-03-19T03:08:24.663Z,97.00
2019-03-19T03:10:57.812Z,96.70
2019-03-19T03:13:31.012Z,96.60
2019-03-19T03:16:24.192Z,96.70
2019-03-19T03:18:57.093Z,96.50
2019-03-19T03:21:30.157Z,96.30
2019-03-19T03:24:03.204Z,96.00
2019-03-19T03:26:47.846Z,95.60
2019-03-19T03:29:11.066Z,96.30
2019-03-19T03:31:43.929Z,94.80
2019-03-19T03:34:18.263Z,95.20
2019-03-19T03:36:51.383Z,98.80
2019-03-19T03:39:27.464Z,95.20
2019-03-19T03:42:00.502Z,94.90
2019-03-19T03:44:34.220Z,94.80
2019-03-19T03:47:07.605Z,94.60
2019-03-19T03:49:41.088Z,94.90
2019-03-19T03:52:14.165Z,94.90
2019-03-19T03:54:47.207Z,95.10
2019-03-19T03:57:20.308Z,94.80
2019-03-19T03:59:53.668Z,94.80
2019-03-19T04:02:26.642Z,94.80
2019-03-19T04:04:59.769Z,94.70
2019-03-19T04:07:32.569Z,95.00
2019-03-19T04:10:12.240Z,94.80
2019-03-19T04:12:43.679Z,94.80
2019-03-19T04:15:18.416Z,95.20
2019-03-19T04:17:52.063Z,96.40
2019-03-19T04:20:25.457Z,94.90
2019-03-19T04:22:58.403Z,94.70
2019-03-19T04:25:31.940Z,94.70
2019-03-19T04:28:04.886Z,94.50
2019-03-19T04:30:37.704Z,96.00
2019-03-19T04:33:11.073Z,94.40
2019-03-19T04:35:44.202Z,94.50
2019-03-19T04:38:17.216Z,94.40
2019-03-19T04:40:50.676Z,94.10
2019-03-19T04:43:23.657Z,94.30
2019-03-19T04:45:57.065Z,94.40
2019-03-19T04:48:30.969Z,94.50
2019-03-19T04:51:03.960Z,94.40
2019-03-19T04:53:36.897Z,94.40
2019-03-19T04:56:10.595Z,93.80
2019-03-19T04:58:43.410Z,94.20
2019-03-19T05:01:16.540Z,93.90
2019-03-19T05:03:49.279Z,93.90
2019-03-19T05:06:22.061Z,94.40
2019-03-19T05:08:55.809Z,93.70
2019-03-19T05:11:28.834Z,93.50
2019-03-19T05:14:01.640Z,94.00
2019-03-19T05:16:34.721Z,94.20
2019-03-19T05:19:07.560Z,95.70
2019-03-19T05:21:41.040Z,94.30
2019-03-19T05:24:14.197Z,97.60
2019-03-19T05:26:47.423Z,93.70
2019-03-19T05:29:20.985Z,93.70
2019-03-19T05:31:54.542Z,93.90
2019-03-19T05:34:27.536Z,95.40
2019-03-19T05:37:02.193Z,94.00
2019-03-19T05:39:35.042Z,93.80
2019-03-19T05:42:08.184Z,93.80
2019-03-19T05:44:41.183Z,93.30
2019-03-19T05:47:14.548Z,94.00
2019-03-19T05:49:47.422Z,98.80
2019-03-19T05:52:20.866Z,94.40
2019-03-19T05:54:53.643Z,94.20
2019-03-19T05:57:26.513Z,98.30
2019-03-19T05:59:59.414Z,94.80
2019-03-19T06:02:35.505Z,95.20
2019-03-19T06:05:10.358Z,94.90
2019-03-19T06:07:43.788Z,94.20
2019-03-19T06:10:17.758Z,93.80
2019-03-19T06:12:51.252Z,98.50
2019-03-19T06:15:24.246Z,93.70
2019-03-19T06:17:57.347Z,93.50
2019-03-19T06:20:30.333Z,93.20
2019-03-19T06:23:03.226Z,98.90
2019-03-19T06:25:36.206Z,98.90
2019-03-19T06:28:09.676Z,94.60
2019-03-19T06:30:43.151Z,93.20
2019-03-19T06:33:17.066Z,96.70
2019-03-19T06:35:49.774Z,93.40
2019-03-19T06:38:23.031Z,97.50
2019-03-19T06:40:55.738Z,93.50
2019-03-19T06:43:28.294Z,93.20
2019-03-19T06:46:01.133Z,93.20
2019-03-19T06:48:34.144Z,94.20
2019-03-19T06:51:07.156Z,93.60
2019-03-19T06:53:40.032Z,94.30
2019-03-19T06:56:14.787Z,95.10
2019-03-19T06:58:59.773Z,95.40
2019-03-19T07:01:35.303Z,94.90
2019-03-19T07:04:08.682Z,93.60
2019-03-19T07:06:41.419Z,99.60
2019-03-19T07:09:14.182Z,99.90
2019-03-19T07:11:46.887Z,98.90
2019-03-19T07:14:20.179Z,96.40
2019-03-19T07:16:52.976Z,95.20
2019-03-19T07:19:25.933Z,99.00
2019-03-19T07:21:58.640Z,93.80
2019-03-19T07:24:31.751Z,93.80
2019-03-19T07:27:04.808Z,96.70
2019-03-19T07:29:39.371Z,96.10
2019-03-19T07:32:12.718Z,99.90
2019-03-19T07:34:45.855Z,94.30
2019-03-19T07:37:19.193Z,95.20
2019-03-19T07:39:54.142Z,96.00
2019-03-19T07:42:26.987Z,98.00
2019-03-19T07:45:00.384Z,96.60
2019-03-19T07:47:34.359Z,98.80
2019-03-19T07:50:10.410Z,99.90
2019-03-19T07:52:45.338Z,94.40
2019-03-19T07:55:18.835Z,99.70
2019-03-19T07:57:54.238Z,99.90
2019-03-19T08:00:27.448Z,99.90
2019-03-19T08:03:00.284Z,99.90
2019-03-19T08:05:33.660Z,99.90
2019-03-19T08:08:06.535Z,99.90
2019-03-19T08:10:40.756Z,99.30
2019-03-19T08:13:13.894Z,93.40
2019-03-19T08:15:46.976Z,93.90
2019-03-19T08:18:20.947Z,91.90
2019-03-19T08:20:54.806Z,96.50
2019-03-19T08:23:27.623Z,92.40
2019-03-19T08:26:00.938Z,92.10
2019-03-19T08:28:33.833Z,97.60
2019-03-19T08:31:07.223Z,97.60
2019-03-19T08:33:40.077Z,92.50
2019-03-19T08:36:14.046Z,91.70
2019-03-19T08:38:47.103Z,96.60
2019-03-19T08:41:20.846Z,96.80
2019-03-19T08:43:53.810Z,92.10
2019-03-19T08:46:27.051Z,94.50
2019-03-19T08:48:59.938Z,91.90
2019-03-19T08:51:33.147Z,91.20
2019-03-19T08:54:06.054Z,91.00
2019-03-19T08:56:39.509Z,95.90
2019-03-19T08:59:36.503Z,96.30
2019-03-19T09:02:36.749Z,92.00
2019-03-19T09:05:45.561Z,91.60
2019-03-19T09:08:19.842Z,91.60
2019-03-19T09:20:51.548Z,95.40
2019-03-19T09:29:33.648Z,91.80
2019-03-19T09:32:06.648Z,91.20
2019-03-19T09:34:39.899Z,91.50
2019-03-19T09:37:13.235Z,96.50
2019-03-19T09:39:46.018Z,97.30
2019-03-19T09:42:21.873Z,93.10
2019-03-19T09:44:58.708Z,97.10
2019-03-19T09:47:29.847Z,98.00
2019-03-19T09:50:02.776Z,92.30
2019-03-19T09:52:36.267Z,97.00
2019-03-19T09:55:11.544Z,94.80
2019-03-19T09:57:45.045Z,98.30
2019-03-19T10:00:21.591Z,93.60
2019-03-19T10:02:54.512Z,95.50
2019-03-19T10:05:28.053Z,92.60
2019-03-19T10:08:01.534Z,92.30
2019-03-19T10:10:34.563Z,97.50
2019-03-19T10:13:08.285Z,98.20
2019-03-19T10:15:42.378Z,96.70
2019-03-19T10:18:15.838Z,92.50
2019-03-19T10:20:49.826Z,92.50
2019-03-19T10:23:22.980Z,92.50
2019-03-19T10:29:49.076Z,92.70
2019-03-19T10:32:11.507Z,92.60
2019-03-19T10:34:51.383Z,92.90
2019-03-19T10:37:34.366Z,92.80
2019-03-19T10:40:14.615Z,92.80
2019-03-19T10:43:08.616Z,96.10
2019-03-19T10:45:42.137Z,95.20
2019-03-19T10:48:23.467Z,97.10
2019-03-19T10:54:27.937Z,97.40
2019-03-19T10:57:29.106Z,93.30
2019-03-19T10:59:53.766Z,93.20
2019-03-19T11:02:48.159Z,93.10
2019-03-19T11:05:27.430Z,93.30
2019-03-19T11:08:07.843Z,93.30
2019-03-19T11:10:53.578Z,93.30
2019-03-19T11:13:26.960Z,94.70
2019-03-19T11:16:00.086Z,93.80
2019-03-19T11:18:33.054Z,94.50
2019-03-19T11:21:46.571Z,94.40
2019-03-19T11:24:55.023Z,93.60
2019-03-19T11:30:44.090Z,93.90
2019-03-19T11:33:36.733Z,93.80
2019-03-19T11:36:18.647Z,93.70
2019-03-19T11:39:09.590Z,93.80
2019-03-19T11:41:46.088Z,93.70
2019-03-19T11:45:05.043Z,93.80
2019-03-19T11:50:36.558Z,94.00
2019-03-19T11:53:09.480Z,94.10
2019-03-19T11:55:42.496Z,94.00
2019-03-19T11:58:15.441Z,99.90
2019-03-19T12:00:50.102Z,94.90
2019-03-19T12:03:23.583Z,94.50
2019-03-19T12:05:56.763Z,94.40
2019-03-19T12:08:30.166Z,94.30
2019-03-19T12:11:03.412Z,95.70
2019-03-19T12:13:36.767Z,94.40
2019-03-19T12:16:09.938Z,94.40
2019-03-19T12:18:42.669Z,94.50
2019-03-19T12:21:16.498Z,99.10
2019-03-19T12:23:49.432Z,94.80
2019-03-19T12:26:22.411Z,94.90
2019-03-19T12:28:55.962Z,96.60
2019-03-19T12:31:29.051Z,94.70
2019-03-19T12:34:02.753Z,94.70
2019-03-19T12:36:35.937Z,97.80
2019-03-19T12:39:10.229Z,94.90
2019-03-19T12:41:44.008Z,95.10
2019-03-19T12:44:17.155Z,95.80
2019-03-19T12:46:50.383Z,97.90
2019-03-19T12:49:23.136Z,95.80
2019-03-19T12:51:56.425Z,95.20
2019-03-19T12:54:29.370Z,95.50
2019-03-19T12:57:02.034Z,95.40
2019-03-19T12:59:35.269Z,95.30
2019-03-19T13:02:08.322Z,95.60
2019-03-19T13:04:41.147Z,96.50
2019-03-19T13:07:14.257Z,95.50
2019-03-19T13:09:46.918Z,95.50
2019-03-19T13:12:20.192Z,97.80
2019-03-19T13:14:53.265Z,95.70
2019-03-19T13:17:26.676Z,96.70
2019-03-19T13:19:59.375Z,95.70
2019-03-19T13:22:32.659Z,96.20
2019-03-19T13:25:06.400Z,95.70
2019-03-19T13:27:39.520Z,95.50
2019-03-19T13:30:16.791Z,95.50
2019-03-19T13:32:50.461Z,95.40
2019-03-19T13:35:23.313Z,95.60
2019-03-19T13:37:56.402Z,95.90
2019-03-19T13:40:29.645Z,95.50
2019-03-19T13:43:02.686Z,95.40
2019-03-19T13:45:35.884Z,95.30
2019-03-19T13:48:09.167Z,95.90
2019-03-19T13:50:42.331Z,97.20
2019-03-19T13:53:15.219Z,95.40
2019-03-19T13:55:47.994Z,95.50
2019-03-19T13:58:21.140Z,95.60
2019-03-19T14:00:55.760Z,95.60
2019-03-19T14:03:28.892Z,96.40
2019-03-19T14:06:01.858Z,99.80
2019-03-19T14:08:34.883Z,97.30
2019-03-19T14:11:07.804Z,95.80
2019-03-19T14:13:40.857Z,95.80
2019-03-19T14:16:13.802Z,95.60
2019-03-19T14:18:47.008Z,95.70
2019-03-19T14:21:20.276Z,99.10
2019-03-19T14:23:53.268Z,99.90
2019-03-19T14:26:28.515Z,95.90
2019-03-19T14:29:01.601Z,95.80
2019-03-19T14:31:34.472Z,96.90
2019-03-19T14:34:07.690Z,96.10
2019-03-19T14:36:41.034Z,96.00
2019-03-19T14:39:14.144Z,96.00
2019-03-19T14:42:00.798Z,96.00
2019-03-19T14:44:33.766Z,95.90
2019-03-19T14:47:11.606Z,96.00
2019-03-19T14:49:47.813Z,95.90
2019-03-19T14:52:28.659Z,98.10
2019-03-19T14:54:59.842Z,96.20
2019-03-19T14:57:33.318Z,96.30
2019-03-19T15:00:16.940Z,96.30
2019-03-19T15:02:49.945Z,96.40
2019-03-19T15:05:24.526Z,96.50
2019-03-19T15:07:57.497Z,97.20
2019-03-19T15:10:30.730Z,96.90
2019-03-19T15:13:03.378Z,97.10
2019-03-19T15:15:38.135Z,96.50
2019-03-19T15:18:11.219Z,97.70
2019-03-19T15:20:46.580Z,96.60
2019-03-19T15:23:21.494Z,96.60
2019-03-19T15:25:55.526Z,96.60
2019-03-19T15:28:28.575Z,96.60
2019-03-19T15:31:02.343Z,96.60
2019-03-19T15:33:35.511Z,96.70
2019-03-19T15:36:08.277Z,96.60
2019-03-19T15:38:42.447Z,96.90
2019-03-19T15:41:16.136Z,96.60
2019-03-19T15:43:48.971Z,98.50
2019-03-19T15:46:22.039Z,96.80
2019-03-19T15:49:00.270Z,99.80
2019-03-19T15:51:33.446Z,96.90
2019-03-19T15:54:07.075Z,99.90
2019-03-19T15:56:40.430Z,97.10
2019-03-19T15:59:13.710Z,97.60
2019-03-19T16:01:48.367Z,97.40
2019-03-19T16:04:22.544Z,96.90
2019-03-19T16:07:10.251Z,96.90
2019-03-19T16:09:43.659Z,99.40
2019-03-19T16:12:17.320Z,99.70
2019-03-19T16:14:50.486Z,98.00
2019-03-19T16:17:26.395Z,97.10
2019-03-19T16:19:59.813Z,97.60
2019-03-19T16:22:33.019Z,97.60
2019-03-19T16:25:09.302Z,97.40
2019-03-19T16:27:42.446Z,97.40
2019-03-19T16:30:18.990Z,97.50
2019-03-19T16:32:51.785Z,97.50
2019-03-19T16:35:24.739Z,97.60
2019-03-19T16:38:10.813Z,97.40
2019-03-19T16:40:44.800Z,98.30
2019-03-19T16:43:19.449Z,98.10
2019-03-19T16:45:52.590Z,99.40
2019-03-19T16:48:28.872Z,98.70
2019-03-19T16:51:02.563Z,98.40
2019-03-19T16:53:35.629Z,99.10
2019-03-19T16:56:08.339Z,98.10
2019-03-19T16:59:00.434Z,98.20
2019-03-19T17:01:33.564Z,98.30
2019-03-19T17:04:06.937Z,98.10
2019-03-19T17:06:41.342Z,97.80
2019-03-19T17:09:15.253Z,98.00
2019-03-19T17:11:48.718Z,97.90
2019-03-19T17:14:22.219Z,97.90
2019-03-19T17:16:55.846Z,97.90
2019-03-19T17:19:29.779Z,98.20
2019-03-19T17:22:04.037Z,99.90
2019-03-19T17:24:37.895Z,99.80
2019-03-19T17:27:11.083Z,98.40
2019-03-19T17:29:44.344Z,99.90
2019-03-19T17:32:18.366Z,98.60
2019-03-19T17:34:51.383Z,99.40
2019-03-19T17:37:25.225Z,98.10
2019-03-19T17:39:59.590Z,98.40
2019-03-19T17:42:32.706Z,98.10
2019-03-19T17:45:06.146Z,98.20
2019-03-19T17:47:39.395Z,98.30
2019-03-19T17:50:20.292Z,98.60
2019-03-19T17:52:54.931Z,98.90
2019-03-19T17:55:29.098Z,98.30
2019-03-19T17:58:03.161Z,98.30
2019-03-19T18:00:40.446Z,98.30
2019-03-19T18:03:13.275Z,98.10
2019-03-19T18:05:46.240Z,98.20
2019-03-19T18:08:19.873Z,99.40
2019-03-19T18:10:53.073Z,98.40
2019-03-19T18:13:30.166Z,98.30
2019-03-19T18:16:03.549Z,98.40
2019-03-19T18:18:36.946Z,99.90
2019-03-19T18:21:10.199Z,98.40
2019-03-19T18:23:45.312Z,98.10
2019-03-19T18:26:18.537Z,98.10
2019-03-19T18:28:53.977Z,98.30
2019-03-19T18:31:27.118Z,98.30
2019-03-19T18:34:09.884Z,98.20
2019-03-19T18:36:35.470Z,98.20
2019-03-19T18:39:10.227Z,98.30
2019-03-19T18:41:43.278Z,98.30
2019-03-19T18:44:16.806Z,98.30
2019-03-19T18:46:50.003Z,98.20
2019-03-19T18:49:23.799Z,98.20
2019-03-19T18:51:56.878Z,98.20
2019-03-19T18:54:31.021Z,98.20
2019-03-19T18:57:16.137Z,98.90
2019-03-19T18:59:51.143Z,99.30
2019-03-19T19:02:24.693Z,98.30
2019-03-19T19:04:57.709Z,98.20
2019-03-19T19:07:30.893Z,98.40
2019-03-19T19:10:03.882Z,98.50
2019-03-19T19:12:37.870Z,98.30
2019-03-19T19:15:17.640Z,98.30
2019-03-19T19:17:51.314Z,99.90
2019-03-19T19:20:24.183Z,99.90
2019-03-19T19:22:57.070Z,99.90
2019-03-19T19:25:30.072Z,98.30
2019-03-19T19:28:04.771Z,98.40
2019-03-19T19:30:37.605Z,98.30
2019-03-19T19:33:11.607Z,98.20
2019-03-19T19:35:45.026Z,98.20
2019-03-19T19:38:18.078Z,98.40
2019-03-19T19:40:51.159Z,99.00
2019-03-19T19:43:24.121Z,98.60
2019-03-19T19:45:57.221Z,98.60
2019-03-19T19:48:36.950Z,98.00
2019-03-19T19:51:13.059Z,98.10
2019-03-19T19:53:49.434Z,98.80
2019-03-19T19:56:22.641Z,98.80
2019-03-19T19:58:57.603Z,98.90
2019-03-19T20:01:31.937Z,99.90
2019-03-19T20:04:05.702Z,99.90
2019-03-19T20:06:38.861Z,98.50
2019-03-19T20:09:12.155Z,99.90
2019-03-19T20:11:45.787Z,98.30
2019-03-19T20:14:21.688Z,98.60
2019-03-19T20:16:56.130Z,98.10
2019-03-19T20:19:30.231Z,99.20
2019-03-19T20:22:04.064Z,99.70
2019-03-19T20:24:37.488Z,98.60
2019-03-19T20:27:10.457Z,98.80
2019-03-19T20:29:45.609Z,98.30
2019-03-19T20:32:19.432Z,98.00
2019-03-19T20:34:56.845Z,99.80
2019-03-19T20:37:35.684Z,98.30
2019-03-19T20:40:12.615Z,99.40
2019-03-19T20:42:46.536Z,99.60
2019-03-19T20:45:31.310Z,97.90
2019-03-19T20:48:04.480Z,98.70
2019-03-19T20:50:42.066Z,99.90
2019-03-19T20:53:15.519Z,99.90
2019-03-19T20:55:48.664Z,98.40
2019-03-19T20:58:22.770Z,98.40
2019-03-19T21:00:56.691Z,98.70
2019-03-19T21:03:35.895Z,99.90
2019-03-19T21:06:07.698Z,99.90
2019-03-19T21:08:40.818Z,99.90
2019-03-19T21:11:14.097Z,99.50
2019-03-19T21:13:49.960Z,98.60
2019-03-19T21:16:24.483Z,98.60
2019-03-19T21:18:59.109Z,98.10
2019-03-19T21:21:33.265Z,97.90
2019-03-19T21:24:06.099Z,97.90
2019-03-19T21:26:39.204Z,98.40
2019-03-19T21:29:12.086Z,99.90
2019-03-19T21:31:45.584Z,98.20
2019-03-19T21:34:19.416Z,99.50
2019-03-19T21:36:53.303Z,99.70
2019-03-19T21:39:26.261Z,98.70
2019-03-19T21:41:59.372Z,99.30
2019-03-19T21:44:32.349Z,98.90
2019-03-19T21:47:05.063Z,98.10
2019-03-19T21:49:37.977Z,98.00
2019-03-19T21:52:11.153Z,98.00
2019-03-19T21:54:44.398Z,98.90
2019-03-19T21:57:17.110Z,99.00
2019-03-19T21:59:50.236Z,99.10
2019-03-19T22:02:23.320Z,99.10
2019-03-19T22:04:56.148Z,99.10
2019-03-19T22:07:29.173Z,99.20
2019-03-19T22:10:02.266Z,99.00
2019-03-19T22:12:36.187Z,99.10
2019-03-19T22:15:14.874Z,99.10
2019-03-19T22:17:48.461Z,99.20
2019-03-19T22:20:21.710Z,99.10
2019-03-19T22:22:54.548Z,99.40
2019-03-19T22:25:27.639Z,99.30
2019-03-19T22:28:00.741Z,99.20
2019-03-19T22:30:33.671Z,99.90
2019-03-19T22:33:06.891Z,98.20
2019-03-19T22:35:40.618Z,98.10
2019-03-19T22:38:14.169Z,98.10
2019-03-19T22:40:47.691Z,98.50
2019-03-19T22:43:21.540Z,98.90
2019-03-19T22:45:54.629Z,98.70
2019-03-19T22:48:27.616Z,98.90
2019-03-19T22:51:00.691Z,99.10
2019-03-19T22:53:33.527Z,99.10
2019-03-19T22:56:06.364Z,99.10
2019-03-19T22:58:39.445Z,99.10
2019-03-19T23:01:12.471Z,99.60
2019-03-19T23:03:47.277Z,99.60
2019-03-19T23:06:20.372Z,99.60
2019-03-19T23:08:53.415Z,99.60
2019-03-19T23:11:26.128Z,99.60
2019-03-19T23:13:59.355Z,99.50
2019-03-19T23:16:31.975Z,99.60
2019-03-19T23:19:05.196Z,99.60
2019-03-19T23:21:37.840Z,99.80
2019-03-19T23:24:10.958Z,99.90
2019-03-19T23:26:43.922Z,99.90
2019-03-19T23:29:16.877Z,99.80
2019-03-19T23:31:50.934Z,99.90
2019-03-19T23:34:23.681Z,99.60
2019-03-19T23:36:56.339Z,99.40
2019-03-19T23:39:29.494Z,99.20
2019-03-19T23:42:03.032Z,99.70
2019-03-19T23:44:36.243Z,99.30
2019-03-19T23:47:08.842Z,99.40
2019-03-19T23:49:42.100Z,98.50
2019-03-19T23:52:15.633Z,98.20
2019-03-19T23:54:49.150Z,98.30
2019-03-19T23:57:22.718Z,99.10
2019-03-19T23:59:56.348Z,99.40
